createdAt,value
2018-07-21T00:01:29.611Z,47.70
2018-07-21T00:03:58.154Z,48.40
2018-07-21T00:06:26.630Z,48.40
2018-07-21T00:08:55.127Z,48.20
2018-07-21T00:11:23.590Z,47.90
2018-07-21T00:13:52.850Z,47.80
2018-07-21T00:16:21.539Z,47.90
2018-07-21T00:18:50.049Z,47.90
2018-07-21T00:21:18.505Z,48.50
2018-07-21T00:23:47.012Z,48.60
2018-07-21T00:26:15.489Z,48.80
2018-07-21T00:28:43.994Z,49.00
2018-07-21T00:31:12.549Z,49.40
2018-07-21T00:33:41.347Z,49.20
2018-07-21T00:36:09.992Z,49.60
2018-07-21T00:38:38.521Z,49.50
2018-07-21T00:41:07.326Z,50.40
2018-07-21T00:43:35.818Z,50.60
2018-07-21T00:46:04.374Z,50.10
2018-07-21T00:48:32.886Z,50.10
2018-07-21T00:51:01.396Z,50.30
2018-07-21T00:53:32.233Z,50.60
2018-07-21T00:56:02.423Z,50.90
2018-07-21T00:58:31.326Z,50.70
2018-07-21T01:01:00.228Z,52.00
2018-07-21T01:03:28.697Z,52.10
2018-07-21T01:05:58.527Z,52.20
2018-07-21T01:08:26.982Z,51.60
2018-07-21T01:10:55.536Z,52.00
2018-07-21T01:13:24.080Z,51.90
2018-07-21T01:15:54.006Z,51.40
2018-07-21T01:18:22.771Z,52.30
2018-07-21T01:20:51.247Z,52.30
2018-07-21T01:23:19.700Z,52.30
2018-07-21T01:25:48.709Z,53.10
2018-07-21T01:28:17.177Z,52.10
2018-07-21T01:30:45.670Z,52.10
2018-07-21T01:33:14.551Z,52.10
2018-07-21T01:35:43.013Z,52.10
2018-07-21T01:38:11.498Z,52.10
2018-07-21T01:40:40.078Z,53.20
2018-07-21T01:43:08.616Z,53.80
2018-07-21T01:45:37.072Z,53.00
2018-07-21T01:48:05.997Z,52.90
2018-07-21T01:50:34.508Z,52.90
2018-07-21T01:53:02.969Z,53.40
2018-07-21T01:55:31.471Z,53.80
2018-07-21T01:57:59.977Z,53.50
2018-07-21T02:00:28.437Z,53.40
2018-07-21T02:02:56.929Z,53.60
2018-07-21T02:05:25.400Z,54.10
2018-07-21T02:07:53.841Z,53.50
2018-07-21T02:10:22.387Z,54.40
2018-07-21T02:12:50.846Z,54.70
2018-07-21T02:15:19.339Z,54.50
2018-07-21T02:17:47.820Z,54.50
2018-07-21T02:20:16.329Z,54.40
2018-07-21T02:22:44.798Z,54.90
2018-07-21T02:25:13.327Z,54.50
2018-07-21T02:27:41.810Z,54.70
2018-07-21T02:30:10.325Z,54.80
2018-07-21T02:32:39.028Z,54.90
2018-07-21T02:35:07.530Z,54.70
2018-07-21T02:37:35.985Z,54.70
2018-07-21T02:40:04.780Z,54.90
2018-07-21T02:42:33.256Z,55.10
2018-07-21T02:45:01.790Z,55.00
2018-07-21T02:47:30.224Z,55.20
2018-07-21T02:49:58.699Z,55.10
2018-07-21T02:52:27.159Z,55.40
2018-07-21T02:54:55.665Z,55.20
2018-07-21T02:57:24.134Z,55.20
2018-07-21T02:59:52.866Z,55.40
2018-07-21T03:02:21.415Z,55.30
2018-07-21T03:04:49.933Z,55.60
2018-07-21T03:07:18.398Z,56.00
2018-07-21T03:09:46.882Z,56.10
2018-07-21T03:12:15.332Z,56.10
2018-07-21T03:14:43.849Z,55.80
2018-07-21T03:17:12.294Z,55.80
2018-07-21T03:19:40.789Z,55.90
2018-07-21T03:22:09.265Z,56.00
2018-07-21T03:24:37.781Z,56.50
2018-07-21T03:27:06.233Z,57.90
2018-07-21T03:29:34.761Z,58.10
2018-07-21T03:32:03.704Z,58.10
2018-07-21T03:34:32.182Z,58.10
2018-07-21T03:37:00.666Z,58.10
2018-07-21T03:39:29.163Z,58.10
2018-07-21T03:41:57.696Z,58.80
2018-07-21T03:44:26.404Z,58.90
2018-07-21T03:46:54.890Z,59.80
2018-07-21T03:49:23.395Z,60.00
2018-07-21T03:51:51.854Z,59.20
2018-07-21T03:54:20.356Z,58.80
2018-07-21T03:56:48.837Z,58.20
2018-07-21T03:59:17.310Z,58.20
2018-07-21T04:01:45.837Z,58.20
2018-07-21T04:04:14.261Z,58.40
2018-07-21T04:06:42.777Z,58.50
2018-07-21T04:09:12.649Z,58.50
2018-07-21T04:11:41.150Z,58.40
2018-07-21T04:14:10.011Z,58.50
2018-07-21T04:16:38.729Z,58.50
2018-07-21T04:19:08.005Z,57.60
2018-07-21T04:21:36.500Z,57.40
2018-07-21T04:24:05.045Z,58.60
2018-07-21T04:26:33.537Z,58.60
2018-07-21T04:29:02.026Z,58.60
2018-07-21T04:31:30.549Z,58.60
2018-07-21T04:33:59.062Z,58.60
2018-07-21T04:36:27.591Z,58.60
2018-07-21T04:38:56.257Z,58.80
2018-07-21T04:41:25.676Z,59.30
2018-07-21T04:43:54.148Z,59.00
2018-07-21T04:46:22.693Z,59.20
2018-07-21T04:48:51.209Z,59.30
2018-07-21T04:51:19.685Z,59.60
2018-07-21T04:53:48.695Z,59.20
2018-07-21T04:56:17.169Z,58.50
2018-07-21T04:58:45.667Z,57.90
2018-07-21T05:08:38.796Z,55.70
2018-07-21T05:11:07.267Z,56.00
2018-07-21T05:13:35.785Z,55.70
2018-07-21T05:16:04.266Z,55.00
2018-07-21T05:18:32.757Z,54.60
2018-07-21T05:21:01.854Z,54.20
2018-07-21T05:23:30.366Z,54.10
2018-07-21T05:28:27.248Z,54.10
2018-07-21T05:30:55.715Z,53.20
2018-07-21T05:33:25.073Z,52.20
2018-07-21T05:35:53.611Z,51.90
2018-07-21T05:38:22.117Z,51.20
2018-07-21T05:40:50.638Z,51.00
2018-07-21T05:43:19.166Z,50.60
2018-07-21T05:45:47.608Z,49.80
2018-07-21T05:48:16.095Z,49.60
2018-07-21T05:50:44.630Z,49.20
2018-07-21T05:53:13.191Z,49.30
2018-07-21T05:55:41.698Z,48.30
2018-07-21T05:58:10.186Z,48.40
2018-07-21T06:00:38.710Z,48.50
2018-07-21T06:03:07.238Z,48.60
2018-07-21T06:05:35.696Z,48.60
2018-07-21T06:08:04.181Z,48.70
2018-07-21T06:10:32.672Z,48.70
2018-07-21T06:13:01.214Z,48.80
2018-07-21T06:15:29.729Z,48.80
2018-07-21T06:17:58.190Z,48.50
2018-07-21T06:20:26.688Z,47.80
2018-07-21T06:22:55.145Z,48.50
2018-07-21T06:25:23.756Z,47.40
2018-07-21T06:27:52.873Z,47.80
2018-07-21T06:30:21.409Z,47.40
2018-07-21T06:32:50.062Z,47.60
2018-07-21T06:35:18.563Z,47.60
2018-07-21T06:37:47.058Z,47.00
2018-07-21T06:40:15.668Z,47.10
2018-07-21T06:42:44.319Z,46.40
2018-07-21T06:45:12.781Z,45.70
2018-07-21T06:47:41.305Z,45.90
2018-07-21T06:50:09.869Z,46.00
2018-07-21T06:52:38.422Z,45.70
2018-07-21T06:55:11.178Z,45.20
2018-07-21T06:57:40.814Z,45.70
2018-07-21T07:00:10.041Z,45.40
2018-07-21T07:05:08.364Z,45.00
2018-07-21T07:07:37.048Z,44.70
2018-07-21T07:10:06.376Z,44.30
2018-07-21T07:12:34.872Z,44.00
2018-07-21T07:15:03.624Z,43.60
2018-07-21T07:17:32.101Z,43.70
2018-07-21T07:20:00.796Z,43.80
2018-07-21T07:22:29.466Z,43.80
2018-07-21T07:24:57.931Z,43.70
2018-07-21T07:27:26.450Z,43.30
2018-07-21T07:29:54.954Z,43.40
2018-07-21T07:32:23.626Z,42.90
2018-07-21T07:34:52.138Z,42.90
2018-07-21T07:37:20.623Z,43.00
2018-07-21T07:39:49.137Z,43.10
2018-07-21T07:44:45.789Z,42.50
2018-07-21T07:47:14.366Z,42.10
2018-07-21T07:49:43.154Z,42.20
2018-07-21T07:52:11.610Z,41.80
2018-07-21T07:54:40.142Z,41.80
2018-07-21T07:57:09.106Z,41.90
2018-07-21T07:59:38.238Z,41.40
2018-07-21T08:02:06.740Z,40.80
2018-07-21T08:04:35.267Z,40.60
2018-07-21T08:07:03.747Z,40.60
2018-07-21T08:09:32.221Z,40.50
2018-07-21T08:12:00.686Z,40.20
2018-07-21T08:14:29.196Z,39.60
2018-07-21T08:16:57.647Z,39.00
2018-07-21T08:19:26.161Z,38.60
2018-07-21T08:21:54.655Z,38.50
2018-07-21T08:24:23.309Z,37.80
2018-07-21T08:26:51.785Z,37.80
2018-07-21T08:29:20.841Z,37.80
2018-07-21T08:31:49.362Z,37.90
2018-07-21T08:34:18.306Z,38.00
2018-07-21T08:36:46.830Z,38.10
2018-07-21T08:39:15.363Z,38.20
2018-07-21T08:41:43.870Z,38.20
2018-07-21T08:44:12.407Z,38.40
2018-07-21T08:46:40.863Z,37.80
2018-07-21T08:49:10.317Z,37.70
2018-07-21T08:51:38.875Z,37.10
2018-07-21T08:54:08.046Z,36.50
2018-07-21T08:56:36.522Z,35.70
2018-07-21T08:59:05.029Z,35.80
2018-07-21T09:04:02.031Z,35.10
2018-07-21T09:06:30.520Z,35.20
2018-07-21T09:08:59.068Z,35.10
2018-07-21T09:11:27.526Z,34.70
2018-07-21T09:13:55.981Z,33.30
2018-07-21T09:16:24.506Z,32.30
2018-07-21T09:18:53.037Z,31.60
2018-07-21T09:21:21.564Z,31.50
2018-07-21T09:23:50.048Z,29.60
2018-07-21T09:28:47.498Z,29.90
2018-07-21T09:31:16.014Z,29.80
2018-07-21T09:33:45.182Z,29.20
2018-07-21T09:36:13.678Z,29.20
2018-07-21T09:41:10.671Z,29.60
2018-07-21T09:43:39.368Z,29.40
2018-07-21T09:46:09.675Z,28.70
2018-07-21T09:48:38.161Z,28.70
2018-07-21T09:51:06.722Z,28.80
2018-07-21T09:53:35.243Z,28.50
2018-07-21T09:56:03.824Z,28.90
2018-07-21T09:58:32.605Z,28.40
2018-07-21T10:01:02.538Z,29.10
2018-07-21T10:03:32.491Z,28.20
2018-07-21T10:06:01.119Z,28.20
2018-07-21T10:08:29.798Z,29.00
2018-07-21T10:10:58.838Z,28.10
2018-07-21T10:13:27.289Z,28.10
2018-07-21T10:15:55.824Z,27.10
2018-07-21T10:18:24.612Z,27.70
2018-07-21T10:23:21.510Z,27.80
2018-07-21T10:27:59.881Z,27.30
2018-07-21T10:30:28.394Z,26.90
2018-07-21T10:32:57.220Z,26.50
2018-07-21T10:35:26.100Z,26.60
2018-07-21T10:37:54.575Z,26.60
2018-07-21T10:40:23.155Z,26.70
2018-07-21T10:42:51.730Z,26.70
2018-07-21T10:45:20.241Z,26.90
2018-07-21T10:47:48.688Z,26.90
2018-07-21T10:50:17.189Z,27.00
2018-07-21T10:52:45.654Z,27.00
2018-07-21T10:55:14.156Z,27.10
2018-07-21T10:57:42.692Z,26.80
2018-07-21T11:00:11.241Z,26.40
2018-07-21T11:02:39.750Z,26.00
2018-07-21T11:05:08.620Z,25.80
2018-07-21T11:07:37.086Z,25.50
2018-07-21T11:10:05.999Z,25.90
2018-07-21T11:12:34.521Z,25.80
2018-07-21T11:15:03.062Z,25.30
2018-07-21T11:17:31.584Z,25.90
2018-07-21T11:20:00.150Z,25.40
2018-07-21T11:22:28.669Z,25.50
2018-07-21T11:24:57.866Z,25.30
2018-07-21T11:27:26.426Z,24.90
2018-07-21T11:29:55.423Z,25.30
2018-07-21T11:34:52.422Z,25.50
2018-07-21T11:37:21.364Z,25.70
2018-07-21T11:39:50.562Z,25.40
2018-07-21T11:42:19.090Z,25.70
2018-07-21T11:44:48.461Z,25.20
2018-07-21T11:47:17.032Z,25.20
2018-07-21T11:52:13.915Z,25.60
2018-07-21T11:54:42.898Z,25.60
2018-07-21T11:57:11.687Z,25.40
2018-07-21T11:59:40.779Z,25.10
2018-07-21T12:02:09.868Z,25.30
2018-07-21T12:04:38.591Z,24.90
2018-07-21T12:07:07.083Z,25.10
2018-07-21T12:09:35.772Z,25.20
2018-07-21T12:12:04.411Z,25.00
2018-07-21T12:14:32.889Z,24.60
2018-07-21T12:17:01.362Z,24.70
2018-07-21T12:19:29.942Z,24.80
2018-07-21T12:21:59.155Z,24.60
2018-07-21T12:24:27.665Z,24.60
2018-07-21T12:26:56.244Z,24.70
2018-07-21T12:29:24.872Z,24.30
2018-07-21T12:31:53.382Z,24.20
2018-07-21T12:34:22.262Z,24.20
2018-07-21T12:36:50.817Z,24.70
2018-07-21T12:39:19.478Z,24.40
2018-07-21T12:41:47.969Z,24.10
2018-07-21T12:44:16.474Z,24.50
2018-07-21T12:46:44.954Z,24.30
2018-07-21T12:49:13.469Z,24.70
2018-07-21T12:51:41.968Z,24.40
2018-07-21T12:54:10.705Z,24.30
2018-07-21T12:56:39.432Z,24.20
2018-07-21T12:59:07.915Z,24.10
2018-07-21T13:04:05.752Z,23.50
2018-07-21T13:06:34.268Z,23.00
2018-07-21T13:09:02.936Z,22.00
2018-07-21T13:11:31.427Z,22.10
2018-07-21T13:13:59.950Z,21.30
2018-07-21T13:16:28.431Z,21.10
2018-07-21T13:18:56.974Z,20.70
2018-07-21T13:21:25.459Z,20.10
2018-07-21T13:23:54.046Z,19.30
2018-07-21T13:26:22.536Z,20.60
2018-07-21T13:28:51.049Z,19.80
2018-07-21T13:31:19.874Z,20.40
2018-07-21T13:33:48.904Z,20.70
2018-07-21T13:38:45.891Z,20.40
2018-07-21T13:41:14.358Z,20.10
2018-07-21T13:43:43.060Z,20.50
2018-07-21T13:46:12.416Z,20.00
2018-07-21T13:48:41.784Z,20.00
2018-07-21T13:51:10.307Z,19.30
2018-07-21T13:53:38.874Z,18.60
2018-07-21T13:56:07.354Z,18.30
2018-07-21T13:58:35.892Z,18.60
2018-07-21T14:01:04.450Z,18.00
2018-07-21T14:03:32.940Z,19.40
2018-07-21T14:06:01.415Z,19.90
2018-07-21T14:08:29.950Z,20.30
2018-07-21T14:10:58.426Z,20.60
2018-07-21T14:13:29.105Z,20.80
2018-07-21T14:15:57.670Z,21.00
2018-07-21T14:18:26.294Z,21.10
2018-07-21T14:20:54.841Z,21.90
2018-07-21T14:23:23.770Z,22.20
2018-07-21T14:25:52.434Z,22.10
2018-07-21T14:28:20.927Z,20.80
2018-07-21T14:30:49.597Z,19.90
2018-07-21T14:33:18.267Z,19.40
2018-07-21T14:35:46.875Z,18.50
2018-07-21T14:38:15.761Z,19.20
2018-07-21T14:40:44.300Z,19.80
2018-07-21T14:43:12.810Z,20.20
2018-07-21T14:45:41.354Z,20.80
2018-07-21T14:48:09.890Z,21.00
2018-07-21T14:50:38.402Z,21.60
2018-07-21T14:53:08.053Z,22.40
2018-07-21T14:55:36.695Z,23.00
2018-07-21T14:58:05.545Z,23.70
2018-07-21T15:00:34.103Z,24.20
2018-07-21T15:03:02.668Z,24.50
2018-07-21T15:05:31.234Z,24.90
2018-07-21T15:07:59.907Z,25.30
2018-07-21T15:10:28.436Z,25.90
2018-07-21T15:12:56.918Z,26.20
2018-07-21T15:15:25.479Z,26.10
2018-07-21T15:17:54.172Z,26.00
2018-07-21T15:20:23.332Z,25.90
2018-07-21T15:22:51.813Z,25.90
2018-07-21T15:25:20.332Z,25.80
2018-07-21T15:27:48.802Z,25.70
2018-07-21T15:30:17.267Z,25.60
2018-07-21T15:32:45.926Z,25.70
2018-07-21T15:35:14.455Z,25.90
2018-07-21T15:37:42.897Z,27.00
2018-07-21T15:40:11.469Z,26.40
2018-07-21T15:42:39.918Z,26.70
2018-07-21T15:45:10.635Z,26.80
2018-07-21T15:47:39.406Z,26.90
2018-07-21T15:50:07.961Z,27.10
2018-07-21T15:52:36.647Z,27.20
2018-07-21T15:55:05.370Z,27.30
2018-07-21T15:57:34.054Z,27.50
2018-07-21T16:00:02.579Z,27.60
2018-07-21T16:02:31.061Z,27.80
2018-07-21T16:04:59.582Z,28.00
2018-07-21T16:07:28.081Z,28.20
2018-07-21T16:09:56.726Z,28.30
2018-07-21T16:12:25.358Z,28.50
2018-07-21T16:14:53.875Z,28.70
2018-07-21T16:17:22.384Z,28.90
2018-07-21T16:19:51.026Z,29.00
2018-07-21T16:22:19.465Z,29.90
2018-07-21T16:24:47.965Z,29.30
2018-07-21T16:27:16.413Z,29.30
2018-07-21T16:29:44.910Z,29.30
2018-07-21T16:32:13.465Z,29.40
2018-07-21T16:34:43.058Z,29.60
2018-07-21T16:37:14.196Z,30.40
2018-07-21T16:39:42.874Z,29.80
2018-07-21T16:42:11.366Z,29.80
2018-07-21T16:44:40.103Z,30.00
2018-07-21T16:47:08.636Z,30.00
2018-07-21T16:49:37.113Z,30.00
2018-07-21T16:52:05.821Z,30.30
2018-07-21T16:54:34.302Z,30.30
2018-07-21T16:59:30.957Z,30.60
2018-07-21T17:01:59.562Z,30.60
2018-07-21T17:04:28.140Z,30.60
2018-07-21T17:06:56.630Z,30.60
2018-07-21T17:09:25.056Z,30.60
2018-07-21T17:11:53.592Z,30.60
2018-07-21T17:14:22.173Z,30.60
2018-07-21T17:19:18.798Z,30.90
2018-07-21T17:21:47.312Z,31.00
2018-07-21T17:24:15.822Z,30.80
2018-07-21T17:26:44.288Z,30.90
2018-07-21T17:29:12.780Z,31.30
2018-07-21T17:31:41.297Z,31.60
2018-07-21T17:34:09.937Z,31.20
2018-07-21T17:36:38.447Z,31.30
2018-07-21T17:39:08.663Z,31.40
2018-07-21T17:41:37.185Z,31.60
2018-07-21T17:44:05.683Z,31.70
2018-07-21T17:46:34.183Z,31.70
2018-07-21T17:49:02.645Z,31.70
2018-07-21T17:51:31.244Z,31.60
2018-07-21T17:53:59.817Z,31.80
2018-07-21T17:56:28.335Z,32.20
2018-07-21T17:58:56.797Z,32.10
2018-07-21T18:01:25.304Z,32.30
2018-07-21T18:03:53.937Z,32.30
2018-07-21T18:06:22.647Z,32.10
2018-07-21T18:08:51.237Z,32.10
2018-07-21T18:11:21.483Z,32.10
2018-07-21T18:13:50.179Z,32.40
2018-07-21T18:16:18.721Z,32.60
2018-07-21T18:18:47.213Z,32.60
2018-07-21T18:21:16.258Z,32.70
2018-07-21T18:23:44.821Z,32.80
2018-07-21T18:26:13.364Z,33.30
2018-07-21T18:28:41.907Z,32.90
2018-07-21T18:31:10.427Z,33.20
2018-07-21T18:33:39.095Z,33.30
2018-07-21T18:36:07.669Z,33.20
2018-07-21T18:38:37.685Z,33.40
2018-07-21T18:41:07.608Z,33.50
2018-07-21T18:43:36.061Z,33.60
2018-07-21T18:46:04.738Z,33.80
2018-07-21T18:48:33.282Z,34.40
2018-07-21T18:51:02.467Z,34.30
2018-07-21T18:53:31.061Z,35.50
2018-07-21T18:55:59.536Z,35.00
2018-07-21T18:58:28.089Z,35.70
2018-07-21T19:00:56.952Z,36.10
2018-07-21T19:03:26.084Z,36.10
2018-07-21T19:05:54.678Z,36.00
2018-07-21T19:08:24.469Z,36.70
2018-07-21T19:10:54.500Z,36.60
2018-07-21T19:15:56.479Z,36.50
2018-07-21T19:18:24.983Z,36.50
2018-07-21T19:20:58.867Z,36.50
2018-07-21T19:23:27.392Z,36.40
2018-07-21T19:26:01.380Z,36.40
2018-07-21T19:28:30.030Z,36.40
2018-07-21T19:30:58.516Z,36.50
2018-07-21T19:33:27.138Z,37.70
2018-07-21T19:35:55.901Z,39.30
2018-07-21T19:38:24.401Z,39.20
2018-07-21T19:40:52.889Z,40.00
2018-07-21T19:43:21.608Z,40.80
2018-07-21T19:45:50.157Z,40.80
2018-07-21T19:48:18.850Z,41.20
2018-07-21T19:50:47.544Z,41.20
2018-07-21T19:53:16.066Z,42.00
2018-07-21T19:55:44.528Z,41.90
2018-07-21T19:58:13.083Z,41.90
2018-07-21T20:00:41.566Z,42.50
2018-07-21T20:03:10.770Z,42.60
2018-07-21T20:05:39.263Z,42.70
2018-07-21T20:08:08.235Z,42.80
2018-07-21T20:10:36.709Z,42.80
2018-07-21T20:13:05.498Z,43.50
2018-07-21T20:15:34.010Z,44.10
2018-07-21T20:18:02.502Z,44.00
2018-07-21T20:20:30.983Z,44.60
2018-07-21T20:22:59.719Z,45.00
2018-07-21T20:25:28.243Z,45.10
2018-07-21T20:27:56.780Z,45.30
2018-07-21T20:30:25.635Z,45.70
2018-07-21T20:32:54.651Z,45.60
2018-07-21T20:35:23.155Z,45.60
2018-07-21T20:37:51.709Z,46.40
2018-07-21T20:40:20.443Z,45.80
2018-07-21T20:42:48.918Z,45.70
2018-07-21T20:45:17.774Z,45.70
2018-07-21T20:47:46.390Z,45.40
2018-07-21T20:50:16.101Z,45.80
2018-07-21T20:52:44.668Z,45.70
2018-07-21T20:55:13.145Z,45.90
2018-07-21T20:57:41.759Z,46.10
2018-07-21T21:00:10.847Z,46.40
2018-07-21T21:02:39.549Z,46.50
2018-07-21T21:05:08.317Z,46.50
2018-07-21T21:07:36.879Z,46.40
2018-07-21T21:10:05.879Z,46.50
2018-07-21T21:12:34.471Z,47.20
2018-07-21T21:15:02.994Z,47.00
2018-07-21T21:17:32.722Z,47.50
2018-07-21T21:20:01.225Z,47.80
2018-07-21T21:22:29.737Z,48.10
2018-07-21T21:24:58.273Z,49.20
2018-07-21T21:27:27.003Z,48.30
2018-07-21T21:29:55.495Z,49.00
2018-07-21T21:32:25.953Z,48.90
2018-07-21T21:34:54.488Z,48.80
2018-07-21T21:37:22.997Z,48.70
2018-07-21T21:39:51.578Z,48.70
2018-07-21T21:42:20.107Z,48.70
2018-07-21T21:44:48.638Z,48.70
2018-07-21T21:47:17.114Z,48.70
2018-07-21T21:49:46.765Z,48.60
2018-07-21T21:52:15.266Z,48.60
2018-07-21T21:57:11.978Z,48.60
2018-07-21T21:59:40.682Z,48.60
2018-07-21T22:02:09.308Z,48.60
2018-07-21T22:04:37.959Z,48.60
2018-07-21T22:07:06.550Z,48.60
2018-07-21T22:09:35.050Z,48.60
2018-07-21T22:14:31.776Z,49.80
2018-07-21T22:17:00.492Z,49.80
2018-07-21T22:19:29.002Z,49.70
2018-07-21T22:21:57.891Z,49.50
2018-07-21T22:24:26.433Z,49.80
2018-07-21T22:29:23.499Z,50.60
2018-07-21T22:31:52.186Z,50.80
2018-07-21T22:34:20.887Z,50.80
2018-07-21T22:36:49.390Z,51.70
2018-07-21T22:39:17.886Z,50.90
2018-07-21T22:41:46.373Z,51.10
2018-07-21T22:44:15.008Z,51.40
2018-07-21T22:49:11.714Z,51.50
2018-07-21T22:51:40.233Z,51.40
2018-07-21T22:54:08.748Z,51.50
2018-07-21T22:56:37.311Z,51.70
2018-07-21T23:01:34.125Z,52.10
2018-07-21T23:04:02.837Z,52.20
2018-07-21T23:06:32.119Z,52.40
2018-07-21T23:09:01.219Z,52.40
2018-07-21T23:11:29.741Z,52.40
2018-07-21T23:13:58.368Z,52.70
2018-07-21T23:16:27.194Z,52.70
2018-07-21T23:18:55.794Z,52.70
2018-07-21T23:21:24.621Z,52.50
2018-07-21T23:23:53.402Z,52.60
2018-07-21T23:26:21.939Z,52.50
2018-07-21T23:28:50.422Z,53.00
2018-07-21T23:31:18.975Z,53.30
2018-07-21T23:33:47.644Z,53.30
2018-07-21T23:36:16.175Z,53.40
2018-07-21T23:38:45.358Z,53.30
2018-07-21T23:41:13.880Z,53.30
2018-07-21T23:43:42.369Z,53.30
2018-07-21T23:46:10.902Z,53.80
2018-07-21T23:48:39.401Z,53.90
2018-07-21T23:51:07.951Z,54.20
2018-07-21T23:53:36.470Z,54.60
2018-07-21T23:58:33.910Z,54.50
